Aérodrome :
LOGIN :

S'inscrire | Disclaimer

   EN    FR    IT 

 










Légende :    VFR   VFR Marginal   IFR   IFR Intensif   IFR Très Intensif
Visi : 
Plafond : 
>= 8 km
>= 3000ft
5 à 8 km
1000 à 3000 ft
1500m à 5 km
500 à 1000 ft
800 à 1500m
200 à 500 ft
< 800m
< 200 ft
Symboles :   Orages  Brouillard  Fortes neiges  Fortes précipitations  Vent > 20 kt
SIGMETs :   Divers  Orages  Givrage  Turbulence  Onde Orograph.  Cendres Volcan.







- Altitude de l'aérodrome : 325 ft
- Code IATA : BES
- Voir les cartes d'approche


LFRB - Brest

DERNIER METAR :
  • 230630Z AUTO 22013KT 9999 -DZ FEW008/// SCT018/// BKN044/// ///TCU 14/13 Q1011 BECMG 20015G25KT 4000 RA BKN006 BKN017

METARs EXPIRÉS :
  • 230600Z AUTO 18011KT 9999 SCT008/// BKN022/// BKN045/// ///TCU 15/14 Q1011 BECMG 20015G25KT 4000 RA BKN006 BKN017
  • 230530Z AUTO 18009KT 9999 FEW016 BKN070 OVC150 15/14 Q1011 BECMG 20015G25KT 4000 RA BKN006 BKN017
  • 230500Z AUTO 19010KT 9999 BKN008 BKN019 15/14 Q1011 BECMG 20015G25KT 4000 RA
  • 230430Z AUTO 18009KT 9999 SCT006 BKN010 BKN018 15/14 Q1011 BECMG 20015G25KT 4000 RA
  • 230400Z AUTO 19009KT 9999 BKN006 OVC017 14/14 Q1012 NOSIG
  • 230000Z AUTO 19006KT 9999 RA FEW039/// SCT054/// BKN070/// ///TCU 14/14 Q1012 BECMG NSW FEW020

TAF TAF LFRB
Valide du 23 à 06h jusqu'au 24 à 12h UTC


230500Z 2306/2412 20009KT 9999 BKN006 BKN017
BECMG 2306/2309 20015G25KT 4000 RA
TEMPO 2310/2318 2000 RADZ OVC003
TEMPO 2313/2315 20022G38KT
PROB30
TEMPO 2400/2406 TSRA BKN004 SCT008CB
ATIS : +33 2 98 32 02 71
Pas de NOTAMs connus pour ce terrain.



MET'MAP, la Météo Aéronautique d'un coup d'oeil ! - Copyright ORBIFLY Décembre 2007 - Disclaimer

ORBIFLY MET'MAP TEAM :

Programmation & Développement : Alexandra Zaïnal
Conception & Développement : Baudouin d'Aumeries
Co-Programmation & Développement : Marc-Olivier Méhu
Soutien technique & logistique : Manuel Goepfert

Contact : metmap@orbifly.com




SOURCES & CREDITS :

   NOAA